createdAt,value
2018-03-08T00:01:38.401Z,68.20
2018-03-08T00:04:06.785Z,71.68
2018-03-08T00:06:35.132Z,70.15
2018-03-08T00:09:03.441Z,67.20
2018-03-08T00:11:31.821Z,69.45
2018-03-08T00:14:00.152Z,72.45
2018-03-08T00:16:28.515Z,69.97
2018-03-08T00:18:57.014Z,73.47
2018-03-08T00:21:25.375Z,70.90
2018-03-08T00:23:53.712Z,69.37
2018-03-08T00:26:22.835Z,73.45
2018-03-08T00:28:51.168Z,74.20
2018-03-08T00:31:19.510Z,73.45
2018-03-08T00:33:47.880Z,72.68
2018-03-08T00:36:16.339Z,69.55
2018-03-08T00:38:44.660Z,68.47
2018-03-08T00:41:13.533Z,68.35
2018-03-08T00:43:41.848Z,67.93
2018-03-08T00:46:10.197Z,70.30
2018-03-08T00:48:38.529Z,66.93
2018-03-08T00:51:07.633Z,69.20
2018-03-08T00:53:36.722Z,66.40
2018-03-08T00:56:05.853Z,67.20
2018-03-08T00:58:34.178Z,68.45
2018-03-08T01:01:03.353Z,69.18
2018-03-08T01:03:31.788Z,67.62
2018-03-08T01:06:00.931Z,68.95
2018-03-08T01:08:29.278Z,69.37
2018-03-08T01:10:57.621Z,66.70
2018-03-08T01:13:25.939Z,64.70
2018-03-08T01:15:54.252Z,62.90
2018-03-08T01:18:22.637Z,62.60
2018-03-08T01:20:50.973Z,64.22
2018-03-08T01:23:19.318Z,61.55
2018-03-08T01:25:48.629Z,63.30
2018-03-08T01:28:17.736Z,65.80
2018-03-08T01:30:46.056Z,66.03
2018-03-08T01:33:14.428Z,67.35
2018-03-08T01:35:42.777Z,65.28
2018-03-08T01:38:11.220Z,68.82
2018-03-08T01:40:40.365Z,64.62
2018-03-08T01:43:08.694Z,62.62
2018-03-08T01:45:37.032Z,65.15
2018-03-08T01:48:05.573Z,67.50
2018-03-08T01:50:34.652Z,64.95
2018-03-08T01:53:03.769Z,67.87
2018-03-08T01:55:32.108Z,68.65
2018-03-08T01:58:00.637Z,69.10
2018-03-08T02:00:29.706Z,69.12
2018-03-08T02:02:58.266Z,70.43
2018-03-08T02:05:26.642Z,72.30
2018-03-08T02:07:55.044Z,70.43
2018-03-08T02:10:23.755Z,66.72
2018-03-08T02:12:52.284Z,68.47
2018-03-08T02:15:20.924Z,66.93
2018-03-08T02:17:50.028Z,68.80
2018-03-08T02:20:18.395Z,63.35
2018-03-08T02:22:47.497Z,64.68
2018-03-08T02:25:16.653Z,64.43
2018-03-08T02:27:44.977Z,66.78
2018-03-08T02:30:13.446Z,63.65
2018-03-08T02:32:43.154Z,63.22
2018-03-08T02:35:11.565Z,63.10
2018-03-08T02:37:40.243Z,63.45
2018-03-08T02:40:08.827Z,62.62
2018-03-08T02:42:37.509Z,61.03
2018-03-08T02:45:05.798Z,65.82
2018-03-08T02:47:34.142Z,62.03
2018-03-08T02:50:02.468Z,61.00
2018-03-08T02:52:31.022Z,61.15
2018-03-08T02:54:59.692Z,63.85
2018-03-08T02:57:28.342Z,65.22
2018-03-08T02:59:56.654Z,61.42
2018-03-08T03:02:25.025Z,65.57
2018-03-08T03:04:53.457Z,61.35
2018-03-08T03:07:21.786Z,60.95
2018-03-08T03:09:50.987Z,62.22
2018-03-08T03:12:19.282Z,64.30
2018-03-08T03:14:47.593Z,66.25
2018-03-08T03:17:16.522Z,63.87
2018-03-08T03:19:44.984Z,63.83
2018-03-08T03:22:13.419Z,61.58
2018-03-08T03:24:41.800Z,65.65
2018-03-08T03:27:10.384Z,63.60
2018-03-08T03:29:38.717Z,63.28
2018-03-08T03:32:07.218Z,68.53
2018-03-08T03:34:35.590Z,68.12
2018-03-08T03:37:05.563Z,64.62
2018-03-08T03:39:34.104Z,67.37
2018-03-08T03:42:02.689Z,65.85
2018-03-08T03:44:31.142Z,68.93
2018-03-08T03:46:59.730Z,66.72
2018-03-08T03:49:28.134Z,67.35
2018-03-08T03:51:56.614Z,70.05
2018-03-08T03:54:24.976Z,64.78
2018-03-08T03:56:53.300Z,65.75
2018-03-08T03:59:21.853Z,63.70
2018-03-08T04:01:50.229Z,67.12
2018-03-08T04:04:18.854Z,67.78
2018-03-08T04:06:47.282Z,67.03
2018-03-08T04:09:15.644Z,68.40
2018-03-08T04:11:44.297Z,62.80
2018-03-08T04:14:12.604Z,65.45
2018-03-08T04:16:41.011Z,67.93
2018-03-08T04:19:09.782Z,66.40
2018-03-08T04:21:38.111Z,66.45
2018-03-08T04:24:07.548Z,66.57
2018-03-08T04:26:35.873Z,64.65
2018-03-08T04:29:04.220Z,61.60
2018-03-08T04:31:32.752Z,62.67
2018-03-08T04:34:01.145Z,64.47
2018-03-08T04:36:29.511Z,63.28
2018-03-08T04:38:57.888Z,65.22
2018-03-08T04:41:26.954Z,62.72
2018-03-08T04:43:55.294Z,61.00
2018-03-08T04:46:23.700Z,62.95
2018-03-08T04:48:52.099Z,62.17
2018-03-08T04:51:20.708Z,63.33
2018-03-08T04:53:49.287Z,62.83
2018-03-08T04:56:18.643Z,61.95
2018-03-08T04:58:47.005Z,62.10
2018-03-08T05:01:15.352Z,59.53
2018-03-08T05:03:44.444Z,62.15
2018-03-08T05:06:12.770Z,60.70
2018-03-08T05:08:41.614Z,60.75
2018-03-08T05:11:09.924Z,59.22
2018-03-08T05:13:38.256Z,61.10
2018-03-08T05:16:06.602Z,58.65
2018-03-08T05:18:35.050Z,61.65
2018-03-08T05:21:03.393Z,61.42
2018-03-08T05:23:31.768Z,59.10
2018-03-08T05:26:00.093Z,57.92
2018-03-08T05:28:28.404Z,59.13
2018-03-08T05:30:56.963Z,56.75
2018-03-08T05:33:25.286Z,61.15
2018-03-08T05:35:53.610Z,56.75
2018-03-08T05:38:21.962Z,56.67
2018-03-08T05:40:50.316Z,56.65
2018-03-08T05:43:18.668Z,54.38
2018-03-08T05:45:47.019Z,55.63
2018-03-08T05:48:15.340Z,57.35
2018-03-08T05:50:43.657Z,54.72
2018-03-08T05:53:13.096Z,55.03
2018-03-08T05:55:41.961Z,54.60
2018-03-08T05:58:10.460Z,55.47
2018-03-08T06:00:38.815Z,54.80
2018-03-08T06:03:07.980Z,55.40
2018-03-08T06:05:36.345Z,54.17
2018-03-08T06:08:04.725Z,54.83
2018-03-08T06:10:33.102Z,55.17
2018-03-08T06:13:01.442Z,55.42
2018-03-08T06:15:29.843Z,53.87
2018-03-08T06:17:58.174Z,52.62
2018-03-08T06:20:27.313Z,54.47
2018-03-08T06:22:55.677Z,55.22
2018-03-08T06:25:23.992Z,52.92
2018-03-08T06:27:52.464Z,52.00
2018-03-08T06:30:20.810Z,51.55
2018-03-08T06:32:49.136Z,53.50
2018-03-08T06:35:17.642Z,53.72
2018-03-08T06:37:46.327Z,52.47
2018-03-08T06:40:14.677Z,55.05
2018-03-08T06:42:43.023Z,52.50
2018-03-08T06:45:11.501Z,51.00
2018-03-08T06:47:39.842Z,49.95
2018-03-08T06:50:08.189Z,47.20
2018-03-08T06:52:36.564Z,48.50
2018-03-08T06:55:04.914Z,47.40
2018-03-08T06:57:33.657Z,44.92
2018-03-08T07:00:02.061Z,47.65
2018-03-08T07:02:30.649Z,43.05
2018-03-08T07:04:59.763Z,43.25
2018-03-08T07:07:28.110Z,40.67
2018-03-08T07:09:56.425Z,39.20
2018-03-08T07:12:24.805Z,41.80
2018-03-08T07:14:53.160Z,39.10
2018-03-08T07:17:21.710Z,41.63
2018-03-08T07:19:50.054Z,38.80
2018-03-08T07:22:18.599Z,36.58
2018-03-08T07:24:46.980Z,36.20
2018-03-08T07:27:15.364Z,34.65
2018-03-08T07:29:44.520Z,32.42
2018-03-08T07:32:13.067Z,33.58
2018-03-08T07:34:41.538Z,30.12
2018-03-08T07:37:10.025Z,26.42
2018-03-08T07:39:38.377Z,25.52
2018-03-08T07:42:06.887Z,24.80
2018-03-08T07:44:35.300Z,22.37
2018-03-08T07:47:03.742Z,22.17
2018-03-08T07:49:32.113Z,20.35
2018-03-08T07:52:00.584Z,19.37
2018-03-08T07:54:29.326Z,19.52
2018-03-08T07:56:57.651Z,20.42
2018-03-08T07:59:26.919Z,18.83
2018-03-08T08:01:55.244Z,19.48
2018-03-08T08:04:42.170Z,18.85
2018-03-08T08:07:28.812Z,18.02
2018-03-08T08:09:57.295Z,16.73
2018-03-08T08:12:25.771Z,16.40
2018-03-08T08:14:54.425Z,17.23
2018-03-08T08:17:22.790Z,15.63
2018-03-08T08:19:51.928Z,16.37
2018-03-08T08:22:20.415Z,16.40
2018-03-08T08:24:48.996Z,16.60
2018-03-08T08:27:17.317Z,16.30
2018-03-08T08:29:46.572Z,16.00
2018-03-08T08:32:15.058Z,16.30
2018-03-08T08:34:43.398Z,16.52
2018-03-08T08:37:12.047Z,16.05
2018-03-08T08:39:40.683Z,17.25
2018-03-08T08:42:09.029Z,16.52
2018-03-08T08:44:38.136Z,16.27
2018-03-08T08:47:07.368Z,17.15
2018-03-08T08:49:35.681Z,16.95
2018-03-08T08:52:04.045Z,16.75
2018-03-08T08:54:32.444Z,17.40
2018-03-08T08:57:00.746Z,17.75
2018-03-08T08:59:30.013Z,16.50
2018-03-08T09:01:58.423Z,16.45
2018-03-08T09:04:27.539Z,16.65
2018-03-08T09:06:55.868Z,18.10
2018-03-08T09:09:24.739Z,18.23
2018-03-08T09:11:53.104Z,18.37
2018-03-08T09:14:21.424Z,18.65
2018-03-08T09:16:49.782Z,19.60
2018-03-08T09:19:18.863Z,16.77
2018-03-08T09:21:47.192Z,18.90
2018-03-08T09:24:15.594Z,21.62
2018-03-08T09:26:43.930Z,19.87
2018-03-08T09:29:12.284Z,20.05
2018-03-08T09:31:40.733Z,19.62
2018-03-08T09:34:09.276Z,19.40
2018-03-08T09:36:37.591Z,19.35
2018-03-08T09:39:05.935Z,22.30
2018-03-08T09:41:34.287Z,22.52
2018-03-08T09:44:02.694Z,24.65
2018-03-08T09:46:31.064Z,24.25
2018-03-08T09:48:59.437Z,25.92
2018-03-08T09:51:27.781Z,27.50
2018-03-08T09:53:56.544Z,28.92
2018-03-08T09:56:24.895Z,27.02
2018-03-08T09:58:53.269Z,28.35
2018-03-08T10:01:21.647Z,30.00
2018-03-08T10:03:49.967Z,29.27
2018-03-08T10:06:18.331Z,29.17
2018-03-08T10:08:46.764Z,27.87
2018-03-08T10:11:15.120Z,30.40
2018-03-08T10:13:43.537Z,27.60
2018-03-08T10:16:12.226Z,29.10
2018-03-08T10:18:40.557Z,30.33
2018-03-08T10:21:08.904Z,32.30
2018-03-08T10:23:37.253Z,31.00
2018-03-08T10:26:05.651Z,28.90
2018-03-08T10:28:34.014Z,31.73
2018-03-08T10:31:02.348Z,29.20
2018-03-08T10:33:30.763Z,29.20
2018-03-08T10:35:59.120Z,30.30
2018-03-08T10:38:27.740Z,29.87
2018-03-08T10:40:56.121Z,32.53
2018-03-08T10:43:24.519Z,33.60
2018-03-08T10:45:52.998Z,32.73
2018-03-08T10:48:21.320Z,32.13
2018-03-08T10:50:49.636Z,32.93
2018-03-08T10:53:18.008Z,33.00
2018-03-08T10:55:46.344Z,32.20
2018-03-08T10:58:14.731Z,35.03
2018-03-08T11:00:46.985Z,31.90
2018-03-08T11:03:16.077Z,33.40
2018-03-08T11:05:47.443Z,33.30
2018-03-08T11:08:16.809Z,33.40
2018-03-08T11:10:45.202Z,33.93
2018-03-08T11:13:13.552Z,32.77
2018-03-08T11:15:41.908Z,32.00
2018-03-08T11:18:10.426Z,29.77
2018-03-08T11:20:38.941Z,27.33
2018-03-08T11:23:07.647Z,31.50
2018-03-08T11:25:35.974Z,30.60
2018-03-08T11:28:04.311Z,29.80
2018-03-08T11:30:32.678Z,30.57
2018-03-08T11:33:01.192Z,30.47
2018-03-08T11:35:29.524Z,31.30
2018-03-08T11:37:58.946Z,28.90
2018-03-08T11:40:27.331Z,28.07
2018-03-08T11:42:55.914Z,28.03
2018-03-08T11:45:24.366Z,27.93
2018-03-08T11:47:52.712Z,25.23
2018-03-08T11:50:21.853Z,26.77
2018-03-08T11:52:49.422Z,27.10
2018-03-08T11:55:17.754Z,25.33
2018-03-08T11:57:46.126Z,22.20
2018-03-08T12:00:14.580Z,22.17
2018-03-08T12:02:42.891Z,21.07
2018-03-08T12:05:11.288Z,22.07
2018-03-08T12:07:40.904Z,21.70
2018-03-08T12:10:09.994Z,19.83
2018-03-08T12:12:38.341Z,19.63
2018-03-08T12:15:06.690Z,19.33
2018-03-08T12:17:35.084Z,19.17
2018-03-08T12:20:03.397Z,18.43
2018-03-08T12:22:31.753Z,17.80
2018-03-08T12:25:00.051Z,16.10
2018-03-08T12:27:28.433Z,17.73
2018-03-08T12:29:56.997Z,17.10
2018-03-08T12:32:25.410Z,15.00
2018-03-08T12:34:54.545Z,15.43
2018-03-08T12:37:23.165Z,13.50
2018-03-08T12:39:51.502Z,12.70
2018-03-08T12:42:19.844Z,13.90
2018-03-08T12:44:48.230Z,13.13
2018-03-08T12:47:16.561Z,13.03
2018-03-08T12:49:44.899Z,12.57
2018-03-08T12:52:13.294Z,11.63
2018-03-08T12:54:41.649Z,12.50
2018-03-08T12:57:10.065Z,12.23
2018-03-08T12:59:38.442Z,11.60
2018-03-08T13:02:06.824Z,12.43
2018-03-08T13:04:35.172Z,12.40
2018-03-08T13:07:04.281Z,12.57
2018-03-08T13:09:32.597Z,11.30
2018-03-08T13:12:00.913Z,11.93
2018-03-08T13:14:29.521Z,10.93
2018-03-08T13:16:58.216Z,10.87
2018-03-08T13:19:26.575Z,11.47
2018-03-08T13:21:55.716Z,9.50
2018-03-08T13:24:24.099Z,12.20
2018-03-08T13:26:53.460Z,10.67
2018-03-08T13:29:22.569Z,10.90
2018-03-08T13:31:51.671Z,9.70
2018-03-08T13:34:19.998Z,10.23
2018-03-08T13:36:48.470Z,10.03
2018-03-08T13:39:16.837Z,9.90
2018-03-08T13:41:45.169Z,8.70
2018-03-08T13:44:14.365Z,8.70
2018-03-08T13:46:42.717Z,8.00
2018-03-08T13:49:29.595Z,8.63
2018-03-08T13:51:57.944Z,8.33
2018-03-08T13:54:27.026Z,8.57
2018-03-08T13:56:56.357Z,8.07
2018-03-08T13:59:24.739Z,7.87
2018-03-08T14:01:53.081Z,7.67
2018-03-08T14:04:21.430Z,7.80
2018-03-08T14:06:50.514Z,7.23
2018-03-08T14:09:18.827Z,7.80
2018-03-08T14:11:47.175Z,7.37
2018-03-08T14:14:15.480Z,7.70
2018-03-08T14:16:43.783Z,7.67
2018-03-08T14:19:13.100Z,7.93
2018-03-08T14:21:41.466Z,7.60
2018-03-08T14:24:09.837Z,7.40
2018-03-08T14:26:38.957Z,6.67
2018-03-08T14:29:07.318Z,6.90
2018-03-08T14:31:36.469Z,7.07
2018-03-08T14:34:04.840Z,7.43
2018-03-08T14:36:33.179Z,7.40
2018-03-08T14:39:01.514Z,6.83
2018-03-08T14:41:29.930Z,6.87
2018-03-08T14:43:58.269Z,5.70
2018-03-08T14:46:26.624Z,6.03
2018-03-08T14:48:54.993Z,6.33
2018-03-08T14:51:23.313Z,5.57
2018-03-08T14:53:51.683Z,6.10
2018-03-08T14:56:20.038Z,6.00
2018-03-08T14:58:48.419Z,5.20
2018-03-08T15:01:16.761Z,5.70
2018-03-08T15:03:45.509Z,5.93
2018-03-08T15:06:13.845Z,4.90
2018-03-08T15:08:42.163Z,4.50
2018-03-08T15:11:10.511Z,4.73
2018-03-08T15:13:38.810Z,5.20
2018-03-08T15:16:07.147Z,5.00
2018-03-08T15:18:35.514Z,3.67
2018-03-08T15:21:03.853Z,3.80
2018-03-08T15:23:32.221Z,4.00
2018-03-08T15:26:00.636Z,4.17
2018-03-08T15:28:28.994Z,4.17
2018-03-08T15:30:57.372Z,3.80
2018-03-08T15:33:25.815Z,3.70
2018-03-08T15:35:54.116Z,3.63
2018-03-08T15:38:22.513Z,3.50
2018-03-08T15:40:50.989Z,3.80
2018-03-08T15:43:19.324Z,3.43
2018-03-08T15:45:47.680Z,4.07
2018-03-08T15:48:17.301Z,3.60
2018-03-08T15:50:46.383Z,3.90
2018-03-08T15:53:14.741Z,3.80
2018-03-08T15:55:43.112Z,3.60
2018-03-08T15:58:11.540Z,4.00
2018-03-08T16:00:40.718Z,3.87
2018-03-08T16:03:08.996Z,3.57
2018-03-08T16:05:37.358Z,3.80
2018-03-08T16:11:32.722Z,3.33
2018-03-08T16:14:01.826Z,3.90
2018-03-08T16:16:30.180Z,3.90
2018-03-08T16:18:58.488Z,3.73
2018-03-08T16:21:41.686Z,4.00
2018-03-08T16:24:10.798Z,3.60
2018-03-08T16:26:39.911Z,3.67
2018-03-08T16:29:08.635Z,3.60
2018-03-08T16:31:36.885Z,3.73
2018-03-08T16:34:05.203Z,3.80
2018-03-08T16:36:33.772Z,4.10
2018-03-08T16:39:02.086Z,4.37
2018-03-08T16:41:31.186Z,4.63
2018-03-08T16:44:00.303Z,4.10
2018-03-08T16:46:29.366Z,3.20
2018-03-08T16:48:57.718Z,4.00
2018-03-08T16:51:26.203Z,4.57
2018-03-08T16:53:54.491Z,4.13
2018-03-08T16:56:22.812Z,4.90
2018-03-08T16:58:51.910Z,4.83
2018-03-08T17:01:20.243Z,4.97
2018-03-08T17:03:48.612Z,5.23
2018-03-08T17:06:16.986Z,6.60
2018-03-08T17:08:45.320Z,5.77
2018-03-08T17:11:14.407Z,6.07
2018-03-08T17:13:42.807Z,6.10
2018-03-08T17:16:11.901Z,5.30
2018-03-08T17:18:40.264Z,5.73
2018-03-08T17:21:08.604Z,5.70
2018-03-08T17:23:36.898Z,6.00
2018-03-08T17:26:05.233Z,6.37
2018-03-08T17:28:33.638Z,6.43
2018-03-08T17:31:02.085Z,6.50
2018-03-08T17:33:30.452Z,6.30
2018-03-08T17:35:59.173Z,7.33
2018-03-08T17:38:27.517Z,6.80
2018-03-08T17:40:55.841Z,6.90
2018-03-08T17:43:24.253Z,6.17
2018-03-08T17:45:53.403Z,7.57
2018-03-08T17:48:21.786Z,5.90
2018-03-08T17:50:50.098Z,6.23
2018-03-08T17:53:18.402Z,7.00
2018-03-08T17:55:46.777Z,7.20
2018-03-08T17:58:15.154Z,7.47
2018-03-08T18:00:43.504Z,7.30
2018-03-08T18:03:11.825Z,6.57
2018-03-08T18:05:40.235Z,7.50
2018-03-08T18:08:08.572Z,7.50
2018-03-08T18:10:37.683Z,7.77
2018-03-08T18:13:06.083Z,8.00
2018-03-08T18:15:34.444Z,7.77
2018-03-08T18:18:02.850Z,6.97
2018-03-08T18:20:31.503Z,7.47
2018-03-08T18:22:59.836Z,8.00
2018-03-08T18:25:28.154Z,8.27
2018-03-08T18:27:57.289Z,7.90
2018-03-08T18:30:25.614Z,8.17
2018-03-08T18:32:54.721Z,7.33
2018-03-08T18:35:23.901Z,8.87
2018-03-08T18:37:52.260Z,8.40
2018-03-08T18:40:20.589Z,7.90
2018-03-08T18:42:49.267Z,9.07
2018-03-08T18:45:17.597Z,9.40
2018-03-08T18:47:45.965Z,8.43
2018-03-08T18:50:14.417Z,8.50
2018-03-08T18:52:42.731Z,8.40
2018-03-08T18:55:11.028Z,7.83
2018-03-08T18:57:39.394Z,9.17
2018-03-08T19:00:07.705Z,9.30
2018-03-08T19:02:36.810Z,9.40
2018-03-08T19:05:06.034Z,9.50
2018-03-08T19:07:34.363Z,9.90
2018-03-08T19:10:03.466Z,9.70
2018-03-08T19:12:32.642Z,9.03
2018-03-08T19:15:00.998Z,8.77
2018-03-08T19:17:29.319Z,8.80
2018-03-08T19:19:57.668Z,9.57
2018-03-08T19:22:26.039Z,8.90
2018-03-08T19:24:54.398Z,10.30
2018-03-08T19:27:22.909Z,9.30
2018-03-08T19:29:51.273Z,9.93
2018-03-08T19:32:19.597Z,7.20
2018-03-08T19:34:48.789Z,7.87
2018-03-08T19:37:17.182Z,7.07
2018-03-08T19:39:45.532Z,6.13
2018-03-08T19:42:13.891Z,5.40
2018-03-08T19:44:42.415Z,4.20
2018-03-08T19:47:10.752Z,4.50
2018-03-08T19:49:39.383Z,3.95
2018-03-08T19:52:08.534Z,2.50
2018-03-08T19:54:36.873Z,2.17
2018-03-08T19:57:05.398Z,2.33
2018-03-08T19:59:33.793Z,4.00
2018-03-08T20:02:02.138Z,2.08
2018-03-08T20:04:30.555Z,1.98
2018-03-08T20:06:58.911Z,1.85
2018-03-08T20:09:27.294Z,2.00
2018-03-08T20:11:55.769Z,1.83
2018-03-08T20:14:24.902Z,2.00
2018-03-08T20:16:53.247Z,1.98
2018-03-08T20:19:21.612Z,1.67
2018-03-08T20:21:49.945Z,1.33
2018-03-08T20:24:18.320Z,1.58
2018-03-08T20:26:46.689Z,1.95
2018-03-08T20:29:15.049Z,1.40
2018-03-08T20:31:43.399Z,1.75
2018-03-08T20:34:11.964Z,1.77
2018-03-08T20:36:40.354Z,2.00
2018-03-08T20:39:08.689Z,2.20
2018-03-08T20:41:37.036Z,2.33
2018-03-08T20:44:05.360Z,2.53
2018-03-08T20:46:34.462Z,2.70
2018-03-08T20:49:03.643Z,3.25
2018-03-08T20:51:32.050Z,2.83
2018-03-08T20:54:01.971Z,2.78
2018-03-08T20:56:31.188Z,2.03
2018-03-08T20:58:59.563Z,2.03
2018-03-08T21:01:27.940Z,2.15
2018-03-08T21:03:56.312Z,2.28
2018-03-08T21:06:24.671Z,3.08
2018-03-08T21:08:53.778Z,2.05
2018-03-08T21:11:22.170Z,2.25
2018-03-08T21:13:50.512Z,2.62
2018-03-08T21:16:18.893Z,2.95
2018-03-08T21:18:47.327Z,3.30
2018-03-08T21:21:15.821Z,2.92
2018-03-08T21:23:44.938Z,3.70
2018-03-08T21:26:13.603Z,3.30
2018-03-08T21:28:42.348Z,3.45
2018-03-08T21:31:11.459Z,3.97
2018-03-08T21:33:39.826Z,3.62
2018-03-08T21:36:08.135Z,4.35
2018-03-08T21:38:36.473Z,4.55
2018-03-08T21:41:06.074Z,5.07
2018-03-08T21:43:34.396Z,5.05
2018-03-08T21:46:02.750Z,6.15
2018-03-08T21:48:31.873Z,5.60
2018-03-08T21:51:00.199Z,6.25
2018-03-08T21:53:28.548Z,5.95
2018-03-08T21:55:56.901Z,7.10
2018-03-08T21:58:25.213Z,7.80
2018-03-08T22:00:53.580Z,7.22
2018-03-08T22:03:22.240Z,9.23
2018-03-08T22:05:50.557Z,8.50
2018-03-08T22:08:18.952Z,8.70
2018-03-08T22:10:47.309Z,9.10
2018-03-08T22:13:15.678Z,9.50
2018-03-08T22:15:44.002Z,9.25
2018-03-08T22:18:12.361Z,10.18
2018-03-08T22:20:40.741Z,9.38
2018-03-08T22:23:09.080Z,9.85
2018-03-08T22:25:37.595Z,10.27
2018-03-08T22:28:05.961Z,10.30
2018-03-08T22:30:34.320Z,9.98
2018-03-08T22:33:02.709Z,11.00
2018-03-08T22:35:31.084Z,11.20
2018-03-08T22:37:59.440Z,11.70
2018-03-08T22:40:27.809Z,10.75
2018-03-08T22:42:56.932Z,12.00
2018-03-08T22:45:25.997Z,12.05
2018-03-08T22:47:54.423Z,11.30
2018-03-08T22:50:22.835Z,12.63
2018-03-08T22:52:51.160Z,12.60
2018-03-08T22:55:19.871Z,12.90
2018-03-08T22:57:48.275Z,12.50
2018-03-08T23:00:18.376Z,12.88
2018-03-08T23:02:46.903Z,13.10
2018-03-08T23:05:15.299Z,13.27
2018-03-08T23:07:43.633Z,13.55
2018-03-08T23:10:12.042Z,13.70
2018-03-08T23:12:40.399Z,13.40
2018-03-08T23:15:08.735Z,13.90
2018-03-08T23:17:37.105Z,14.40
2018-03-08T23:20:05.446Z,13.20
2018-03-08T23:22:33.784Z,15.52
2018-03-08T23:25:02.173Z,16.37
2018-03-08T23:27:30.480Z,15.52
2018-03-08T23:29:58.809Z,15.10
2018-03-08T23:32:27.577Z,16.10
2018-03-08T23:34:56.678Z,14.50
2018-03-08T23:37:25.017Z,15.93
2018-03-08T23:39:54.153Z,15.07
2018-03-08T23:42:23.238Z,15.27
2018-03-08T23:44:52.339Z,15.65
2018-03-08T23:47:21.559Z,16.50
2018-03-08T23:49:49.890Z,16.70
2018-03-08T23:52:18.237Z,15.60
2018-03-08T23:54:46.936Z,17.42
2018-03-08T23:57:15.284Z,16.05
2018-03-08T23:59:43.618Z,14.65
